Time;durP1;ratioP1;P1;durP2;ratioP2;P2;SDS_P1;SDS_P2;PMS_P1;PMS_P2;Temp;Humidity;BMP_temperature;BMP_pressure;BME280_temperature;BME280_humidity;BME280_pressure;Samples;Min_cycle;Max_cycle;Signal;HPM_P1;HPM_P2
2022/08/27 00:00:59;;;;;;;4.13;0.70;;;;;;;;;;5281682;28;20330;-67
2022/08/27 00:03:30;;;;;;;2.53;0.95;;;;;;;;;;5281653;28;20441;-67
2022/08/27 00:06:02;;;;;;;6.53;1.00;;;;;;;;;;5282368;28;20278;-67
2022/08/27 00:08:34;;;;;;;3.20;0.70;;;;;;;;;;5281126;28;20455;-67
2022/08/27 00:11:05;;;;;;;5.05;0.70;;;;;;;;;;5282451;28;20033;-67
2022/08/27 00:13:37;;;;;;;5.28;0.70;;;;;;;;;;5281535;28;20008;-67
2022/08/27 00:16:09;;;;;;;5.35;0.75;;;;;;;;;;5281657;28;20380;-67
2022/08/27 00:18:41;;;;;;;3.40;0.73;;;;;;;;;;5281625;28;20020;-68
2022/08/27 00:21:12;;;;;;;6.28;0.70;;;;;;;;;;5281232;28;20020;-66
2022/08/27 00:23:43;;;;;;;7.47;0.77;;;;;;;;;;5281394;28;20388;-67
2022/08/27 00:26:15;;;;;;;6.88;1.00;;;;;;;;;;5282089;28;20581;-66
2022/08/27 00:28:46;;;;;;;4.03;0.60;;;;;;;;;;5280580;28;20051;-67
2022/08/27 00:31:18;;;;;;;4.95;0.75;;;;;;;;;;5281852;28;20025;-67
2022/08/27 00:33:49;;;;;;;3.08;0.50;;;;;;;;;;5281242;28;20029;-67
2022/08/27 00:36:20;;;;;;;3.75;0.85;;;;;;;;;;5281227;28;20020;-67
2022/08/27 00:38:52;;;;;;;5.13;1.10;;;;;;;;;;5281183;28;20267;-68
2022/08/27 00:41:23;;;;;;;3.28;0.80;;;;;;;;;;5281551;28;20479;-67
2022/08/27 00:43:58;;;;;;;5.07;0.70;;;;;;;;;;5280581;28;20032;-67
2022/08/27 00:46:33;;;;;;;5.57;0.80;;;;;;;;;;5281239;28;20012;-67
2022/08/27 00:49:11;;;;;;;3.75;0.80;;;;;;;;;;5281517;28;20052;-67
2022/08/27 00:51:43;;;;;;;4.97;1.02;;;;;;;;;;5280374;28;20086;-67
2022/08/27 00:54:14;;;;;;;5.13;1.05;;;;;;;;;;5281225;28;20017;-67
2022/08/27 00:56:46;;;;;;;6.47;1.00;;;;;;;;;;5280095;28;20379;-67
2022/08/27 00:59:19;;;;;;;5.65;1.30;;;;;;;;;;5281791;28;20274;-67
2022/08/27 01:04:41;;;;;;;4.72;1.10;;;;;;;;;;5280052;28;20103;-67
2022/08/27 01:07:13;;;;;;;5.15;1.02;;;;;;;;;;5281818;28;20048;-67
2022/08/27 01:09:45;;;;;;;3.80;1.20;;;;;;;;;;5280898;28;20032;-68
2022/08/27 01:12:17;;;;;;;8.70;1.33;;;;;;;;;;5280549;28;20016;-67
2022/08/27 01:14:48;;;;;;;4.85;1.40;;;;;;;;;;5280696;28;20369;-68
2022/08/27 01:17:19;;;;;;;5.87;1.10;;;;;;;;;;5281264;28;20020;-68
2022/08/27 01:19:58;;;;;;;3.88;1.08;;;;;;;;;;5280281;28;20270;-68
2022/08/27 01:22:38;;;;;;;4.15;1.13;;;;;;;;;;5280844;28;20013;-68
2022/08/27 01:25:11;;;;;;;4.28;1.13;;;;;;;;;;5280423;28;20032;-68
2022/08/27 01:27:44;;;;;;;3.33;1.30;;;;;;;;;;5280795;28;20028;-68
2022/08/27 01:30:16;;;;;;;5.50;1.20;;;;;;;;;;5281340;28;20398;-68
2022/08/27 01:32:48;;;;;;;4.80;1.48;;;;;;;;;;5279977;28;20094;-68
2022/08/27 01:35:19;;;;;;;5.00;1.30;;;;;;;;;;5281202;28;20067;-68
2022/08/27 01:37:52;;;;;;;3.72;1.42;;;;;;;;;;5280296;28;20013;-68
2022/08/27 01:40:24;;;;;;;8.80;1.42;;;;;;;;;;5279981;28;20360;-68
2022/08/27 01:42:55;;;;;;;4.28;0.98;;;;;;;;;;5281079;28;20031;-68
2022/08/27 01:45:28;;;;;;;6.00;1.38;;;;;;;;;;5280586;28;20016;-67
2022/08/27 01:48:00;;;;;;;7.50;2.33;;;;;;;;;;5281135;28;20025;-67
2022/08/27 01:50:34;;;;;;;3.60;1.33;;;;;;;;;;5280267;28;20475;-67
2022/08/27 01:53:09;;;;;;;5.15;1.33;;;;;;;;;;5280512;28;20099;-67
2022/08/27 01:55:41;;;;;;;6.05;1.58;;;;;;;;;;5280778;28;20043;-67
2022/08/27 01:58:13;;;;;;;6.10;1.63;;;;;;;;;;5280962;28;20074;-67
2022/08/27 02:00:46;;;;;;;4.35;1.70;;;;;;;;;;5279431;28;20430;-67
2022/08/27 02:03:17;;;;;;;4.35;1.60;;;;;;;;;;5280574;28;20040;-67
2022/08/27 02:05:49;;;;;;;6.07;1.90;;;;;;;;;;5281933;28;20035;-67
2022/08/27 02:08:20;;;;;;;3.70;1.50;;;;;;;;;;5284190;28;20026;-67
2022/08/27 02:10:52;;;;;;;6.10;1.73;;;;;;;;;;5284090;28;20036;-67
2022/08/27 02:13:23;;;;;;;4.40;1.33;;;;;;;;;;5284680;28;20483;-67
2022/08/27 02:15:54;;;;;;;6.32;1.63;;;;;;;;;;5283512;28;20107;-67
2022/08/27 02:18:25;;;;;;;5.65;2.00;;;;;;;;;;5284243;28;20012;-67
2022/08/27 02:20:56;;;;;;;4.32;2.08;;;;;;;;;;5284012;28;20029;-67
2022/08/27 02:23:28;;;;;;;5.73;1.77;;;;;;;;;;5283940;28;20275;-67
2022/08/27 02:25:59;;;;;;;7.82;2.13;;;;;;;;;;5284453;28;20313;-67
2022/08/27 02:28:30;;;;;;;7.40;2.10;;;;;;;;;;5283221;28;20027;-67
2022/08/27 02:31:02;;;;;;;5.25;1.95;;;;;;;;;;5284451;28;20071;-67
2022/08/27 02:33:33;;;;;;;5.20;1.70;;;;;;;;;;5283809;28;20024;-67
2022/08/27 02:36:04;;;;;;;6.05;2.25;;;;;;;;;;5283530;28;20103;-67
2022/08/27 02:38:36;;;;;;;5.72;1.67;;;;;;;;;;5283523;28;20259;-68
2022/08/27 02:41:07;;;;;;;7.05;2.55;;;;;;;;;;5284309;28;20024;-67
2022/08/27 02:43:38;;;;;;;6.22;2.25;;;;;;;;;;5282733;28;20029;-67
2022/08/27 02:46:10;;;;;;;5.70;2.28;;;;;;;;;;5284216;28;20341;-67
2022/08/27 02:48:42;;;;;;;9.20;2.08;;;;;;;;;;5283378;28;20020;-67
2022/08/27 02:51:14;;;;;;;8.00;2.42;;;;;;;;;;5283184;28;20053;-67
2022/08/27 02:53:45;;;;;;;8.93;2.80;;;;;;;;;;5283419;28;20044;-67
2022/08/27 02:56:16;;;;;;;7.90;2.75;;;;;;;;;;5283325;28;20289;-67
2022/08/27 02:58:47;;;;;;;8.23;2.40;;;;;;;;;;5283300;28;20012;-67
2022/08/27 03:01:19;;;;;;;5.65;2.03;;;;;;;;;;5283784;28;20029;-67
2022/08/27 03:03:50;;;;;;;8.60;3.97;;;;;;;;;;5282278;28;20056;-67
2022/08/27 03:06:22;;;;;;;6.22;2.55;;;;;;;;;;5283850;28;20020;-67
2022/08/27 03:08:53;;;;;;;3.72;2.50;;;;;;;;;;5282936;28;20450;-67
2022/08/27 03:11:24;;;;;;;5.77;3.73;;;;;;;;;;5282570;28;20700;-67
2022/08/27 03:13:55;;;;;;;6.57;2.75;;;;;;;;;;5283069;28;20341;-67
2022/08/27 03:16:26;;;;;;;6.20;2.80;;;;;;;;;;5283085;28;20514;-67
2022/08/27 03:18:57;;;;;;;5.13;2.70;;;;;;;;;;5282763;28;20285;-67
2022/08/27 03:21:29;;;;;;;6.63;2.65;;;;;;;;;;5282866;28;20074;-67
2022/08/27 03:24:00;;;;;;;6.18;2.70;;;;;;;;;;5282577;28;20346;-67
2022/08/27 03:26:32;;;;;;;5.82;2.78;;;;;;;;;;5282590;28;20012;-67
2022/08/27 03:29:03;;;;;;;4.55;2.92;;;;;;;;;;5283545;28;20012;-67
2022/08/27 03:31:34;;;;;;;5.55;2.45;;;;;;;;;;5281853;28;20097;-67
2022/08/27 03:34:07;;;;;;;8.50;3.22;;;;;;;;;;5283256;28;20017;-67
2022/08/27 03:36:38;;;;;;;3.90;2.67;;;;;;;;;;5282535;28;20028;-67
2022/08/27 03:39:09;;;;;;;9.90;3.27;;;;;;;;;;5282262;28;20028;-67
2022/08/27 03:41:40;;;;;;;3.10;2.38;;;;;;;;;;5282597;28;20354;-67
2022/08/27 03:44:11;;;;;;;8.82;3.38;;;;;;;;;;5283071;28;20267;-67
2022/08/27 03:46:42;;;;;;;6.55;3.25;;;;;;;;;;5281850;28;20271;-68
2022/08/27 03:49:14;;;;;;;9.00;3.72;;;;;;;;;;5282846;28;20028;-67
2022/08/27 03:51:45;;;;;;;6.05;2.38;;;;;;;;;;5282203;28;20663;-68
2022/08/27 03:54:16;;;;;;;8.23;3.87;;;;;;;;;;5281900;28;20270;-68
2022/08/27 03:56:47;;;;;;;8.10;2.95;;;;;;;;;;5282191;28;20761;-68
2022/08/27 03:59:19;;;;;;;7.85;2.78;;;;;;;;;;5281538;28;20062;-68
2022/08/27 04:01:50;;;;;;;6.87;3.53;;;;;;;;;;5281845;28;20116;-68
2022/08/27 04:04:22;;;;;;;7.57;3.20;;;;;;;;;;5282455;28;20314;-68
2022/08/27 04:06:54;;;;;;;6.70;3.17;;;;;;;;;;5281594;28;20255;-68
2022/08/27 04:09:25;;;;;;;9.25;3.85;;;;;;;;;;5282028;28;20065;-68
2022/08/27 04:11:57;;;;;;;6.60;3.28;;;;;;;;;;5282478;28;20262;-68
2022/08/27 04:14:28;;;;;;;7.10;3.00;;;;;;;;;;5280926;28;20009;-68
2022/08/27 04:16:59;;;;;;;8.05;3.40;;;;;;;;;;5282235;28;20024;-67
2022/08/27 04:19:32;;;;;;;7.97;3.45;;;;;;;;;;5281814;28;20618;-68
2022/08/27 04:22:04;;;;;;;8.23;2.90;;;;;;;;;;5281476;28;20021;-68
2022/08/27 04:24:36;;;;;;;5.65;3.13;;;;;;;;;;5281467;28;20497;-68
2022/08/27 04:27:08;;;;;;;4.93;3.25;;;;;;;;;;5282159;28;20032;-68
2022/08/27 04:29:39;;;;;;;5.13;3.03;;;;;;;;;;5280288;28;20380;-68
2022/08/27 04:32:11;;;;;;;7.53;3.65;;;;;;;;;;5282145;28;20021;-68
2022/08/27 04:34:42;;;;;;;8.23;3.58;;;;;;;;;;5280801;28;20027;-68
2022/08/27 04:37:13;;;;;;;6.45;3.10;;;;;;;;;;5281855;28;20096;-68
2022/08/27 04:39:44;;;;;;;7.07;2.83;;;;;;;;;;5281270;28;20281;-68
2022/08/27 04:42:17;;;;;;;6.10;3.23;;;;;;;;;;5281090;28;20262;-68
2022/08/27 04:44:48;;;;;;;6.22;3.60;;;;;;;;;;5281003;28;20270;-68
2022/08/27 04:47:20;;;;;;;8.35;3.08;;;;;;;;;;5281632;28;20017;-68
2022/08/27 04:49:51;;;;;;;6.20;3.30;;;;;;;;;;5280094;28;20352;-68
2022/08/27 04:52:22;;;;;;;6.03;3.53;;;;;;;;;;5281764;28;20020;-68
2022/08/27 04:54:54;;;;;;;8.75;3.45;;;;;;;;;;5281136;28;20263;-68
2022/08/27 04:57:25;;;;;;;4.50;3.15;;;;;;;;;;5280515;28;20348;-68
2022/08/27 04:59:56;;;;;;;5.38;3.50;;;;;;;;;;5281476;28;20048;-68
2022/08/27 05:02:27;;;;;;;7.00;3.75;;;;;;;;;;5280084;28;20062;-68
2022/08/27 05:04:59;;;;;;;8.27;4.00;;;;;;;;;;5281211;28;20067;-68
2022/08/27 05:07:30;;;;;;;5.82;2.97;;;;;;;;;;5280923;28;20294;-68
2022/08/27 05:10:01;;;;;;;8.60;4.13;;;;;;;;;;5280569;28;20286;-68
2022/08/27 05:12:32;;;;;;;6.10;3.33;;;;;;;;;;5280763;28;20277;-68
2022/08/27 05:15:03;;;;;;;9.27;4.15;;;;;;;;;;5281591;28;20277;-68
2022/08/27 05:17:35;;;;;;;5.65;3.47;;;;;;;;;;5279930;28;20267;-68
2022/08/27 05:20:06;;;;;;;7.80;3.50;;;;;;;;;;5281513;28;20031;-68
2022/08/27 05:22:38;;;;;;;12.75;3.67;;;;;;;;;;5280576;28;20012;-68
2022/08/27 05:25:10;;;;;;;7.05;4.30;;;;;;;;;;5280269;28;20024;-68
2022/08/27 05:27:41;;;;;;;9.40;3.25;;;;;;;;;;5280702;28;20455;-68
2022/08/27 05:30:12;;;;;;;7.28;3.55;;;;;;;;;;5281167;28;20032;-68
2022/08/27 05:32:43;;;;;;;9.57;3.70;;;;;;;;;;5279700;28;20195;-68
2022/08/27 05:35:15;;;;;;;7.30;4.17;;;;;;;;;;5281221;28;20271;-68
2022/08/27 05:37:46;;;;;;;9.02;3.70;;;;;;;;;;5279629;28;20340;-67
2022/08/27 05:40:17;;;;;;;9.82;3.35;;;;;;;;;;5281840;28;20086;-68
2022/08/27 05:42:48;;;;;;;11.70;4.50;;;;;;;;;;5284856;28;20259;-68
2022/08/27 05:45:19;;;;;;;10.60;4.50;;;;;;;;;;5284572;28;20341;-68
2022/08/27 05:47:50;;;;;;;6.88;4.10;;;;;;;;;;5284478;28;20262;-68
2022/08/27 05:50:22;;;;;;;11.30;4.33;;;;;;;;;;5285145;28;20510;-67
2022/08/27 05:52:53;;;;;;;12.35;4.75;;;;;;;;;;5283893;28;20258;-67
2022/08/27 05:55:24;;;;;;;12.23;5.05;;;;;;;;;;5284859;28;20017;-67
2022/08/27 05:57:55;;;;;;;11.65;4.78;;;;;;;;;;5284860;28;20070;-67
2022/08/27 06:03:16;;;;;;;6.90;3.33;;;;;;;;;;5284989;28;20282;-67
2022/08/27 06:05:48;;;;;;;9.57;4.43;;;;;;;;;;5283484;28;20012;-67
2022/08/27 06:08:19;;;;;;;9.83;4.90;;;;;;;;;;5284764;28;20427;-67
2022/08/27 06:10:51;;;;;;;10.85;4.22;;;;;;;;;;5283998;28;20287;-67
2022/08/27 06:13:22;;;;;;;10.60;4.93;;;;;;;;;;5283901;28;20263;-67
2022/08/27 06:16:00;;;;;;;10.57;4.82;;;;;;;;;;5284490;28;20039;-67
2022/08/27 06:18:32;;;;;;;9.67;4.70;;;;;;;;;;5283920;28;20019;-67
2022/08/27 06:21:04;;;;;;;9.65;4.97;;;;;;;;;;5283747;28;20013;-67
2022/08/27 06:23:36;;;;;;;10.98;4.88;;;;;;;;;;5283687;28;20121;-67
2022/08/27 06:26:11;;;;;;;10.68;5.55;;;;;;;;;;5284635;28;20020;-69
2022/08/27 06:28:43;;;;;;;7.72;4.13;;;;;;;;;;5283155;28;20380;-69
2022/08/27 06:31:14;;;;;;;12.00;4.30;;;;;;;;;;5284130;28;20034;-66
2022/08/27 06:33:46;;;;;;;10.50;4.80;;;;;;;;;;5283589;28;20115;-67
2022/08/27 06:36:19;;;;;;;7.82;4.93;;;;;;;;;;5283916;28;20020;-67
2022/08/27 06:38:50;;;;;;;8.73;5.13;;;;;;;;;;5283769;28;20024;-67
2022/08/27 06:41:23;;;;;;;8.48;4.40;;;;;;;;;;5283393;28;20070;-67
2022/08/27 06:43:54;;;;;;;7.70;4.30;;;;;;;;;;5283762;28;20016;-67
2022/08/27 06:46:26;;;;;;;9.20;4.35;;;;;;;;;;5283466;28;20020;-67
2022/08/27 06:48:59;;;;;;;6.05;3.92;;;;;;;;;;5283334;28;20374;-67
2022/08/27 06:51:31;;;;;;;6.75;4.10;;;;;;;;;;5282868;28;20035;-67
2022/08/27 06:54:03;;;;;;;7.22;4.78;;;;;;;;;;5284102;28;20024;-67
2022/08/27 06:56:35;;;;;;;11.65;5.32;;;;;;;;;;5282597;28;20024;-67
2022/08/27 06:59:07;;;;;;;9.90;4.25;;;;;;;;;;5283833;28;20055;-67
2022/08/27 07:01:39;;;;;;;9.93;4.55;;;;;;;;;;5283290;28;20017;-67
2022/08/27 07:04:12;;;;;;;8.80;4.53;;;;;;;;;;5282815;28;20124;-67
2022/08/27 07:06:44;;;;;;;11.88;4.40;;;;;;;;;;5283151;28;20171;-67
2022/08/27 07:09:15;;;;;;;11.18;4.10;;;;;;;;;;5282822;28;20153;-67
2022/08/27 07:11:47;;;;;;;7.97;4.57;;;;;;;;;;5282842;28;20040;-67
2022/08/27 07:14:18;;;;;;;13.50;4.22;;;;;;;;;;5283707;28;20062;-67
2022/08/27 07:16:50;;;;;;;11.00;3.97;;;;;;;;;;5281727;28;20452;-66
2022/08/27 07:19:21;;;;;;;7.70;3.58;;;;;;;;;;5283557;28;20789;-67
2022/08/27 07:21:52;;;;;;;8.27;3.47;;;;;;;;;;5282750;28;20021;-67
2022/08/27 07:24:23;;;;;;;8.80;2.75;;;;;;;;;;5282499;28;20266;-67
2022/08/27 07:26:55;;;;;;;8.93;3.30;;;;;;;;;;5283313;28;20028;-67
2022/08/27 07:29:26;;;;;;;7.43;3.20;;;;;;;;;;5282906;28;20043;-68
2022/08/27 07:31:57;;;;;;;7.50;3.33;;;;;;;;;;5282329;28;20330;-67
2022/08/27 07:34:28;;;;;;;5.93;2.20;;;;;;;;;;5282576;28;20529;-68
2022/08/27 07:36:59;;;;;;;6.67;2.73;;;;;;;;;;5283376;28;20365;-67
2022/08/27 07:39:31;;;;;;;9.20;2.78;;;;;;;;;;5281733;28;20270;-67
2022/08/27 07:44:52;;;;;;;5.18;2.58;;;;;;;;;;5281617;28;20703;-67
2022/08/27 07:47:23;;;;;;;6.60;2.50;;;;;;;;;;5282939;28;20013;-67
2022/08/27 07:49:56;;;;;;;7.47;2.05;;;;;;;;;;5282680;28;20020;-68
2022/08/27 07:52:27;;;;;;;5.38;1.90;;;;;;;;;;5281471;28;20033;-68
2022/08/27 07:54:58;;;;;;;6.35;1.60;;;;;;;;;;5282715;28;20039;-67
2022/08/27 07:57:30;;;;;;;6.07;2.27;;;;;;;;;;5282172;28;20103;-67
2022/08/27 08:00:01;;;;;;;6.80;2.25;;;;;;;;;;5281902;28;20270;-67
2022/08/27 08:02:33;;;;;;;7.20;2.92;;;;;;;;;;5281699;28;20031;-68
2022/08/27 08:05:05;;;;;;;4.97;2.13;;;;;;;;;;5265604;28;20116;-68
2022/08/27 08:07:37;;;;;;;5.28;1.90;;;;;;;;;;5273020;28;20107;-67
2022/08/27 08:10:10;;;;;;;6.63;1.65;;;;;;;;;;5281064;28;20029;-67
2022/08/27 08:12:41;;;;;;;8.90;1.70;;;;;;;;;;5280080;28;20032;-67
2022/08/27 08:15:12;;;;;;;6.57;2.17;;;;;;;;;;5280316;28;20024;-68
2022/08/27 08:17:44;;;;;;;4.28;1.20;;;;;;;;;;5280131;28;20388;-68
2022/08/27 08:20:15;;;;;;;5.35;1.20;;;;;;;;;;5280079;28;20028;-68
2022/08/27 08:22:47;;;;;;;6.20;1.42;;;;;;;;;;5280694;28;20013;-68
2022/08/27 08:25:18;;;;;;;5.22;1.33;;;;;;;;;;5281330;28;20020;-68
2022/08/27 08:27:50;;;;;;;6.75;1.38;;;;;;;;;;5279993;28;20020;-67
2022/08/27 08:30:21;;;;;;;7.28;1.83;;;;;;;;;;5281381;28;20107;-68
2022/08/27 08:32:52;;;;;;;5.30;1.92;;;;;;;;;;5280499;28;20274;-67
2022/08/27 08:35:23;;;;;;;8.27;1.85;;;;;;;;;;5279879;28;20158;-68
2022/08/27 08:37:55;;;;;;;7.10;2.03;;;;;;;;;;5276377;28;20063;-67
2022/08/27 08:40:29;;;;;;;5.30;1.30;;;;;;;;;;5279817;28;20336;-67
2022/08/27 08:43:02;;;;;;;6.00;1.58;;;;;;;;;;5280858;28;20024;-68
2022/08/27 08:45:36;;;;;;;5.30;1.48;;;;;;;;;;5281388;28;20025;-67
2022/08/27 08:48:11;;;;;;;8.40;2.20;;;;;;;;;;5280879;28;20056;-67
2022/08/27 08:50:56;;;;;;;6.03;1.70;;;;;;;;;;5280711;28;20039;-68
2022/08/27 08:53:39;;;;;;;4.93;1.45;;;;;;;;;;5280972;28;20021;-67
2022/08/27 08:56:16;;;;;;;4.20;1.20;;;;;;;;;;5280850;28;20016;-67
2022/08/27 08:58:54;;;;;;;5.13;1.23;;;;;;;;;;5281180;28;20463;-67
2022/08/27 09:01:25;;;;;;;5.53;1.25;;;;;;;;;;5280840;28;20021;-68
2022/08/27 09:03:58;;;;;;;7.22;1.40;;;;;;;;;;5280378;28;20113;-68
2022/08/27 09:06:39;;;;;;;5.18;1.20;;;;;;;;;;5280847;28;20016;-67
2022/08/27 09:09:18;;;;;;;9.70;1.50;;;;;;;;;;5280691;28;20024;-68
2022/08/27 09:11:54;;;;;;;4.35;1.00;;;;;;;;;;5280909;28;20028;-68
2022/08/27 09:14:25;;;;;;;4.20;0.90;;;;;;;;;;5280652;28;20056;-68
2022/08/27 09:16:58;;;;;;;5.30;1.00;;;;;;;;;;5280718;28;20040;-68
2022/08/27 09:19:29;;;;;;;1.92;0.50;;;;;;;;;;5280946;28;20267;-68
2022/08/27 09:22:05;;;;;;;3.35;0.50;;;;;;;;;;5281398;28;20021;-68
2022/08/27 09:24:45;;;;;;;3.70;0.50;;;;;;;;;;5279916;28;20023;-68
2022/08/27 09:27:17;;;;;;;3.38;0.50;;;;;;;;;;5281568;28;20060;-69
2022/08/27 09:29:53;;;;;;;4.78;0.60;;;;;;;;;;5279984;28;20029;-68
2022/08/27 09:32:25;;;;;;;4.82;0.90;;;;;;;;;;5280987;28;20009;-68
2022/08/27 09:35:03;;;;;;;5.70;0.50;;;;;;;;;;5281173;28;20017;-68
2022/08/27 09:37:44;;;;;;;4.10;0.60;;;;;;;;;;5280005;28;20100;-68
2022/08/27 09:40:21;;;;;;;5.07;0.70;;;;;;;;;;5281289;28;20494;-68
2022/08/27 09:42:55;;;;;;;3.78;0.70;;;;;;;;;;5280411;28;20046;-68
2022/08/27 09:45:28;;;;;;;2.92;0.80;;;;;;;;;;5279637;28;20071;-68
2022/08/27 09:48:08;;;;;;;2.47;0.50;;;;;;;;;;5280977;28;20020;-68
2022/08/27 09:50:41;;;;;;;4.18;0.50;;;;;;;;;;5280448;28;20111;-68
2022/08/27 09:53:17;;;;;;;2.72;0.52;;;;;;;;;;5280193;28;20035;-68
2022/08/27 09:55:51;;;;;;;6.28;0.77;;;;;;;;;;5280360;28;20024;-68
2022/08/27 09:58:25;;;;;;;2.95;0.50;;;;;;;;;;5280330;28;20138;-68
2022/08/27 10:00:58;;;;;;;2.28;0.50;;;;;;;;;;5280950;28;20486;-68
2022/08/27 10:03:30;;;;;;;5.40;0.60;;;;;;;;;;5280102;28;20400;-68
2022/08/27 10:06:01;;;;;;;2.53;0.45;;;;;;;;;;5280185;28;20028;-68
2022/08/27 10:08:37;;;;;;;3.45;0.60;;;;;;;;;;5280027;28;20092;-67
2022/08/27 10:11:24;;;;;;;3.20;0.60;;;;;;;;;;5280951;28;20060;-68
2022/08/27 10:13:58;;;;;;;3.63;0.70;;;;;;;;;;5279864;28;20081;-68
2022/08/27 10:16:46;;;;;;;2.97;0.52;;;;;;;;;;5280089;28;20024;-69
2022/08/27 10:19:23;;;;;;;4.40;0.70;;;;;;;;;;5280121;28;20073;-68
2022/08/27 10:22:11;;;;;;;13.73;0.88;;;;;;;;;;5280530;28;20470;-67
2022/08/27 10:24:42;;;;;;;4.07;0.77;;;;;;;;;;5280047;28;20467;-67
2022/08/27 10:27:25;;;;;;;2.83;0.75;;;;;;;;;;5281786;28;20027;-67
2022/08/27 10:29:56;;;;;;;6.20;0.82;;;;;;;;;;5284368;28;20032;-67
2022/08/27 10:32:40;;;;;;;4.43;0.80;;;;;;;;;;5279732;28;20017;-68
2022/08/27 10:35:27;;;;;;;5.93;0.80;;;;;;;;;;5283507;28;20008;-68
2022/08/27 10:38:09;;;;;;;3.13;0.73;;;;;;;;;;5283958;28;20425;-68
2022/08/27 10:40:58;;;;;;;3.95;0.73;;;;;;;;;;5282469;28;20020;-66
2022/08/27 10:43:39;;;;;;;2.78;0.68;;;;;;;;;;5283493;28;20044;-67
2022/08/27 10:46:16;;;;;;;4.90;0.65;;;;;;;;;;5283612;28;20028;-66
2022/08/27 10:48:54;;;;;;;2.80;0.70;;;;;;;;;;5282074;28;20367;-66
2022/08/27 10:51:31;;;;;;;6.13;0.80;;;;;;;;;;5283565;28;20032;-67
2022/08/27 10:54:20;;;;;;;5.90;0.95;;;;;;;;;;5283972;28;20016;-66
2022/08/27 10:56:55;;;;;;;3.88;0.60;;;;;;;;;;5283669;28;20392;-67
2022/08/27 10:59:35;;;;;;;4.50;0.60;;;;;;;;;;5283493;28;20035;-67
2022/08/27 11:02:20;;;;;;;6.63;0.73;;;;;;;;;;5283015;28;20043;-67
2022/08/27 11:04:57;;;;;;;3.95;0.60;;;;;;;;;;5282977;28;20055;-66
2022/08/27 11:07:39;;;;;;;3.33;0.77;;;;;;;;;;5283351;28;20519;-67
2022/08/27 11:10:26;;;;;;;5.28;0.80;;;;;;;;;;5282932;28;20025;-67
2022/08/27 11:13:02;;;;;;;5.22;0.80;;;;;;;;;;5283225;28;20490;-67
2022/08/27 11:15:35;;;;;;;3.25;0.70;;;;;;;;;;5281889;28;20472;-68
2022/08/27 11:18:17;;;;;;;6.47;0.60;;;;;;;;;;5283401;28;20037;-68
2022/08/27 11:21:08;;;;;;;5.72;1.10;;;;;;;;;;5282885;28;20032;-67
2022/08/27 11:23:44;;;;;;;3.47;0.55;;;;;;;;;;5282050;28;20397;-67
2022/08/27 11:26:16;;;;;;;5.50;0.50;;;;;;;;;;5283509;28;20017;-68
2022/08/27 11:28:52;;;;;;;2.42;0.45;;;;;;;;;;5282669;28;20090;-67
2022/08/27 11:31:30;;;;;;;2.85;0.47;;;;;;;;;;5282069;28;20056;-68
2022/08/27 11:34:09;;;;;;;3.90;0.45;;;;;;;;;;5282976;28;20025;-67
2022/08/27 11:36:46;;;;;;;3.22;0.45;;;;;;;;;;5282049;28;20380;-66
2022/08/27 11:39:29;;;;;;;2.25;0.43;;;;;;;;;;5281873;28;20049;-66
2022/08/27 11:42:09;;;;;;;2.13;0.40;;;;;;;;;;5282904;28;20020;-66
2022/08/27 11:44:42;;;;;;;5.30;0.57;;;;;;;;;;5281800;28;20017;-66
2022/08/27 11:47:18;;;;;;;2.88;0.50;;;;;;;;;;5283126;28;20020;-66
2022/08/27 11:49:53;;;;;;;4.85;0.63;;;;;;;;;;5282227;28;20036;-67
2022/08/27 11:52:33;;;;;;;2.35;0.40;;;;;;;;;;5281807;28;20480;-68
2022/08/27 11:55:07;;;;;;;2.60;0.50;;;;;;;;;;5282745;28;20021;-67
2022/08/27 11:57:39;;;;;;;4.30;0.50;;;;;;;;;;5281454;28;20510;-68
2022/08/27 12:00:27;;;;;;;6.97;0.50;;;;;;;;;;5282698;28;20044;-67
2022/08/27 12:03:03;;;;;;;3.80;0.50;;;;;;;;;;5282492;28;20036;-68
2022/08/27 12:05:38;;;;;;;2.72;0.40;;;;;;;;;;5276409;28;20063;-67
2022/08/27 12:08:15;;;;;;;4.82;0.40;;;;;;;;;;5278303;28;20024;-67
2022/08/27 12:11:04;;;;;;;5.30;0.47;;;;;;;;;;5281708;28;20043;-67
2022/08/27 12:13:36;;;;;;;6.15;0.40;;;;;;;;;;5281000;28;20115;-66
2022/08/27 12:16:15;;;;;;;4.78;0.70;;;;;;;;;;5281893;28;20137;-66
2022/08/27 12:18:55;;;;;;;1.83;0.40;;;;;;;;;;5280937;28;20016;-67
2022/08/27 12:21:50;;;;;;;3.38;0.50;;;;;;;;;;5281791;28;20081;-67
2022/08/27 12:24:29;;;;;;;7.15;0.50;;;;;;;;;;5282362;28;20418;-66
2022/08/27 12:27:20;;;;;;;3.72;0.40;;;;;;;;;;5281264;28;20028;-67
2022/08/27 12:29:59;;;;;;;2.97;0.30;;;;;;;;;;5281110;28;20060;-67
2022/08/27 12:32:43;;;;;;;3.00;0.40;;;;;;;;;;5277744;28;20475;-67
2022/08/27 12:35:16;;;;;;;2.60;0.32;;;;;;;;;;5281873;28;20021;-67
2022/08/27 12:38:01;;;;;;;4.38;0.60;;;;;;;;;;5281163;28;20027;-66
2022/08/27 12:40:53;;;;;;;3.30;0.30;;;;;;;;;;5279976;28;20360;-66
2022/08/27 12:43:26;;;;;;;3.30;0.47;;;;;;;;;;5280461;28;20029;-66
2022/08/27 12:46:03;;;;;;;1.50;0.30;;;;;;;;;;5281738;28;20375;-66
2022/08/27 12:48:50;;;;;;;2.00;0.30;;;;;;;;;;5279931;28;20020;-67
2022/08/27 12:51:23;;;;;;;2.88;0.30;;;;;;;;;;5281183;28;20076;-66
2022/08/27 12:54:00;;;;;;;2.00;0.32;;;;;;;;;;5280417;28;20016;-67
2022/08/27 12:56:40;;;;;;;2.33;0.40;;;;;;;;;;5281198;28;20100;-67
2022/08/27 12:59:29;;;;;;;6.07;0.50;;;;;;;;;;5280832;28;20107;-67
2022/08/27 13:02:18;;;;;;;3.35;0.40;;;;;;;;;;5280910;28;20028;-67
2022/08/27 13:04:50;;;;;;;2.10;0.40;;;;;;;;;;5280630;28;20083;-67
2022/08/27 13:07:28;;;;;;;2.83;0.40;;;;;;;;;;5281500;28;20052;-67
2022/08/27 13:10:09;;;;;;;2.53;0.35;;;;;;;;;;5280144;28;20444;-67
2022/08/27 13:12:41;;;;;;;1.55;0.30;;;;;;;;;;5280618;28;20024;-68
2022/08/27 13:15:14;;;;;;;4.55;0.30;;;;;;;;;;5280137;28;20525;-66
2022/08/27 13:17:45;;;;;;;6.25;0.40;;;;;;;;;;5281054;28;20032;-67
2022/08/27 13:20:21;;;;;;;2.63;0.40;;;;;;;;;;5281109;28;20379;-67
2022/08/27 13:22:52;;;;;;;2.03;0.30;;;;;;;;;;5279968;28;20059;-67
2022/08/27 13:25:35;;;;;;;2.20;0.30;;;;;;;;;;5280176;28;20060;-67
2022/08/27 13:28:11;;;;;;;4.07;0.40;;;;;;;;;;5281164;28;20024;-67
2022/08/27 13:30:43;;;;;;;4.32;0.30;;;;;;;;;;5279260;28;20024;-65
2022/08/27 13:33:22;;;;;;;1.52;0.30;;;;;;;;;;5281051;28;20024;-65
2022/08/27 13:35:55;;;;;;;3.10;0.40;;;;;;;;;;5279667;28;20024;-67
2022/08/27 13:38:29;;;;;;;4.55;0.20;;;;;;;;;;5279842;28;20305;-66
2022/08/27 13:41:00;;;;;;;3.30;0.68;;;;;;;;;;5280527;28;20095;-65
2022/08/27 13:43:39;;;;;;;1.60;0.30;;;;;;;;;;5279804;28;20103;-66
2022/08/27 13:46:10;;;;;;;;;;;;;;;;;;5281741;28;20028;-66
2022/08/27 13:48:42;;;;;;;1.80;0.40;;;;;;;;;;5280705;28;20087;-66
2022/08/27 13:51:14;;;;;;;2.95;0.40;;;;;;;;;;5280263;28;20096;-67
2022/08/27 13:56:37;;;;;;;3.67;0.88;;;;;;;;;;5280858;28;20107;-66
2022/08/27 13:59:13;;;;;;;6.13;0.50;;;;;;;;;;5280133;28;20023;-67
2022/08/27 14:01:57;;;;;;;2.33;0.40;;;;;;;;;;5281424;28;20534;-67
2022/08/27 14:04:46;;;;;;;5.68;0.50;;;;;;;;;;5283418;28;20525;-67
2022/08/27 14:07:17;;;;;;;2.78;0.50;;;;;;;;;;5284991;28;20022;-67
2022/08/27 14:09:51;;;;;;;5.88;0.82;;;;;;;;;;5284315;28;20025;-67
2022/08/27 14:12:33;;;;;;;7.20;0.65;;;;;;;;;;5283937;28;20036;-67
2022/08/27 14:15:19;;;;;;;2.33;0.40;;;;;;;;;;5285170;28;20099;-67
2022/08/27 14:17:50;;;;;;;5.55;1.00;;;;;;;;;;5284088;28;20023;-66
2022/08/27 14:20:22;;;;;;;1.50;0.30;;;;;;;;;;5283953;28;20020;-67
2022/08/27 14:22:54;;;;;;;2.47;0.30;;;;;;;;;;5284054;28;20309;-67
2022/08/27 14:25:25;;;;;;;2.63;0.40;;;;;;;;;;5283197;28;20115;-67
2022/08/27 14:27:57;;;;;;;5.05;0.40;;;;;;;;;;5284467;28;20431;-67
2022/08/27 14:30:28;;;;;;;3.22;0.40;;;;;;;;;;5283986;28;20447;-67
2022/08/27 14:33:00;;;;;;;2.05;0.50;;;;;;;;;;5283736;28;20099;-66
2022/08/27 14:35:32;;;;;;;4.85;0.50;;;;;;;;;;5284099;28;20016;-66
2022/08/27 14:38:16;;;;;;;1.02;0.20;;;;;;;;;;5284040;28;20024;-67
2022/08/27 14:40:50;;;;;;;4.32;0.73;;;;;;;;;;5271243;28;20024;-66
2022/08/27 14:43:21;;;;;;;7.05;0.45;;;;;;;;;;5263534;28;20039;-67
2022/08/27 14:45:53;;;;;;;5.43;0.83;;;;;;;;;;5262724;28;20185;-66
2022/08/27 14:48:26;;;;;;;6.82;0.50;;;;;;;;;;5262465;28;20278;-66
2022/08/27 14:50:58;;;;;;;6.00;0.50;;;;;;;;;;5263521;28;20032;-67
2022/08/27 14:53:29;;;;;;;2.30;0.30;;;;;;;;;;5262076;28;20017;-66
2022/08/27 14:56:01;;;;;;;2.88;0.40;;;;;;;;;;5263267;28;20047;-66
2022/08/27 14:58:32;;;;;;;3.38;0.50;;;;;;;;;;5262817;28;20021;-66
2022/08/27 15:01:03;;;;;;;2.80;0.40;;;;;;;;;;5262505;28;20021;-68
2022/08/27 15:03:36;;;;;;;5.13;0.40;;;;;;;;;;5262344;28;20120;-67
2022/08/27 15:06:07;;;;;;;4.63;0.60;;;;;;;;;;5263064;28;20021;-66
2022/08/27 15:08:39;;;;;;;2.75;0.30;;;;;;;;;;5261567;28;20021;-66
2022/08/27 15:11:13;;;;;;;3.90;0.32;;;;;;;;;;5262972;28;20025;-67
2022/08/27 15:13:44;;;;;;;3.20;0.40;;;;;;;;;;5261911;28;20021;-67
2022/08/27 15:16:25;;;;;;;3.33;0.38;;;;;;;;;;5262163;28;20523;-67
2022/08/27 15:18:56;;;;;;;2.50;0.30;;;;;;;;;;5262520;28;20043;-67
2022/08/27 15:21:29;;;;;;;5.25;0.40;;;;;;;;;;5261223;28;20100;-67
2022/08/27 15:24:02;;;;;;;3.50;0.30;;;;;;;;;;5262658;28;20020;-67
2022/08/27 15:26:33;;;;;;;2.55;0.43;;;;;;;;;;5262126;28;20461;-67
2022/08/27 15:29:04;;;;;;;5.05;0.40;;;;;;;;;;5261713;28;20092;-67
2022/08/27 15:31:37;;;;;;;3.15;0.40;;;;;;;;;;5261677;28;20470;-65
2022/08/27 15:34:08;;;;;;;6.18;0.40;;;;;;;;;;5262504;28;20040;-66